sensor_id;sensor_type;location;lat;lon;timestamp;P1;durP1;ratioP1;P2;durP2;ratioP2
41689;SDS011;27372;42.658;23.256;2023-03-01T00:01:49;6.60;;;5.03;;
41689;SDS011;27372;42.658;23.256;2023-03-01T00:04:15;9.38;;;5.55;;
41689;SDS011;27372;42.658;23.256;2023-03-01T00:06:42;7.95;;;5.60;;
41689;SDS011;27372;42.658;23.256;2023-03-01T00:09:11;8.75;;;5.72;;
41689;SDS011;27372;42.658;23.256;2023-03-01T00:11:37;7.95;;;5.90;;
41689;SDS011;27372;42.658;23.256;2023-03-01T00:14:02;7.35;;;5.25;;
41689;SDS011;27372;42.658;23.256;2023-03-01T00:16:41;8.20;;;5.47;;
41689;SDS011;27372;42.658;23.256;2023-03-01T00:19:10;5.68;;;4.68;;
41689;SDS011;27372;42.658;23.256;2023-03-01T00:21:38;7.75;;;5.35;;
41689;SDS011;27372;42.658;23.256;2023-03-01T00:24:05;7.63;;;5.47;;
41689;SDS011;27372;42.658;23.256;2023-03-01T00:26:31;6.72;;;5.07;;
41689;SDS011;27372;42.658;23.256;2023-03-01T00:28:56;6.60;;;4.88;;
41689;SDS011;27372;42.658;23.256;2023-03-01T00:31:24;7.72;;;5.00;;
41689;SDS011;27372;42.658;23.256;2023-03-01T00:33:53;6.15;;;4.32;;
41689;SDS011;27372;42.658;23.256;2023-03-01T00:36:23;7.90;;;5.30;;
41689;SDS011;27372;42.658;23.256;2023-03-01T00:38:53;7.78;;;6.32;;
41689;SDS011;27372;42.658;23.256;2023-03-01T00:41:19;6.72;;;5.53;;
41689;SDS011;27372;42.658;23.256;2023-03-01T00:43:47;7.07;;;4.90;;
41689;SDS011;27372;42.658;23.256;2023-03-01T00:46:14;6.63;;;4.93;;
41689;SDS011;27372;42.658;23.256;2023-03-01T00:48:41;7.93;;;5.27;;
41689;SDS011;27372;42.658;23.256;2023-03-01T00:51:17;8.20;;;5.60;;
41689;SDS011;27372;42.658;23.256;2023-03-01T00:53:45;6.15;;;4.50;;
41689;SDS011;27372;42.658;23.256;2023-03-01T00:56:12;5.47;;;4.68;;
41689;SDS011;27372;42.658;23.256;2023-03-01T00:58:39;6.18;;;4.80;;
41689;SDS011;27372;42.658;23.256;2023-03-01T01:01:08;5.97;;;4.88;;
41689;SDS011;27372;42.658;23.256;2023-03-01T01:03:42;5.47;;;4.63;;
41689;SDS011;27372;42.658;23.256;2023-03-01T01:06:28;8.15;;;5.57;;
41689;SDS011;27372;42.658;23.256;2023-03-01T01:08:55;5.73;;;4.73;;
41689;SDS011;27372;42.658;23.256;2023-03-01T01:11:22;6.10;;;4.57;;
41689;SDS011;27372;42.658;23.256;2023-03-01T01:13:48;6.10;;;4.75;;
41689;SDS011;27372;42.658;23.256;2023-03-01T01:16:15;5.32;;;4.00;;
41689;SDS011;27372;42.658;23.256;2023-03-01T01:18:42;5.10;;;3.97;;
41689;SDS011;27372;42.658;23.256;2023-03-01T01:24:12;4.00;;;3.42;;
41689;SDS011;27372;42.658;23.256;2023-03-01T01:26:50;4.00;;;3.40;;
41689;SDS011;27372;42.658;23.256;2023-03-01T01:29:16;4.38;;;3.67;;
41689;SDS011;27372;42.658;23.256;2023-03-01T01:31:47;3.97;;;3.42;;
41689;SDS011;27372;42.658;23.256;2023-03-01T01:34:20;3.53;;;3.22;;
41689;SDS011;27372;42.658;23.256;2023-03-01T01:36:50;3.50;;;3.17;;
41689;SDS011;27372;42.658;23.256;2023-03-01T01:39:19;4.18;;;3.25;;
41689;SDS011;27372;42.658;23.256;2023-03-01T01:41:50;3.60;;;3.05;;
41689;SDS011;27372;42.658;23.256;2023-03-01T01:44:25;3.92;;;3.25;;
41689;SDS011;27372;42.658;23.256;2023-03-01T01:46:56;5.63;;;2.83;;
41689;SDS011;27372;42.658;23.256;2023-03-01T01:49:30;3.95;;;3.28;;
41689;SDS011;27372;42.658;23.256;2023-03-01T01:54:47;3.47;;;3.17;;
41689;SDS011;27372;42.658;23.256;2023-03-01T01:57:27;6.60;;;3.80;;
41689;SDS011;27372;42.658;23.256;2023-03-01T01:59:59;3.63;;;2.90;;
41689;SDS011;27372;42.658;23.256;2023-03-01T02:02:35;3.58;;;2.92;;
41689;SDS011;27372;42.658;23.256;2023-03-01T02:05:05;4.10;;;3.17;;
41689;SDS011;27372;42.658;23.256;2023-03-01T02:07:39;3.08;;;2.47;;
41689;SDS011;27372;42.658;23.256;2023-03-01T02:10:06;2.75;;;2.55;;
41689;SDS011;27372;42.658;23.256;2023-03-01T02:12:32;3.30;;;2.40;;
41689;SDS011;27372;42.658;23.256;2023-03-01T02:14:59;3.42;;;3.03;;
41689;SDS011;27372;42.658;23.256;2023-03-01T02:17:24;3.13;;;2.78;;
41689;SDS011;27372;42.658;23.256;2023-03-01T02:20:13;2.65;;;2.42;;
41689;SDS011;27372;42.658;23.256;2023-03-01T02:22:56;2.95;;;2.65;;
41689;SDS011;27372;42.658;23.256;2023-03-01T02:25:24;2.72;;;2.50;;
41689;SDS011;27372;42.658;23.256;2023-03-01T02:28:03;2.80;;;2.50;;
41689;SDS011;27372;42.658;23.256;2023-03-01T02:30:48;2.80;;;2.50;;
41689;SDS011;27372;42.658;23.256;2023-03-01T02:33:34;3.33;;;2.70;;
41689;SDS011;27372;42.658;23.256;2023-03-01T02:36:04;3.00;;;2.70;;
41689;SDS011;27372;42.658;23.256;2023-03-01T02:38:34;2.83;;;2.58;;
41689;SDS011;27372;42.658;23.256;2023-03-01T02:40:59;2.67;;;2.45;;
41689;SDS011;27372;42.658;23.256;2023-03-01T02:43:30;3.05;;;2.75;;
41689;SDS011;27372;42.658;23.256;2023-03-01T02:45:59;2.92;;;2.63;;
41689;SDS011;27372;42.658;23.256;2023-03-01T02:48:38;3.10;;;2.80;;
41689;SDS011;27372;42.658;23.256;2023-03-01T02:51:10;3.35;;;3.00;;
41689;SDS011;27372;42.658;23.256;2023-03-01T02:56:42;3.40;;;3.10;;
41689;SDS011;27372;42.658;23.256;2023-03-01T02:59:09;4.40;;;3.90;;
41689;SDS011;27372;42.658;23.256;2023-03-01T03:01:36;7.40;;;5.28;;
41689;SDS011;27372;42.658;23.256;2023-03-01T03:04:05;6.35;;;4.68;;
41689;SDS011;27372;42.658;23.256;2023-03-01T03:06:32;4.63;;;3.95;;
41689;SDS011;27372;42.658;23.256;2023-03-01T03:08:58;5.45;;;3.70;;
41689;SDS011;27372;42.658;23.256;2023-03-01T03:11:24;4.65;;;4.00;;
41689;SDS011;27372;42.658;23.256;2023-03-01T03:13:50;6.20;;;4.72;;
41689;SDS011;27372;42.658;23.256;2023-03-01T03:16:17;5.05;;;4.45;;
41689;SDS011;27372;42.658;23.256;2023-03-01T03:18:42;5.47;;;4.55;;
41689;SDS011;27372;42.658;23.256;2023-03-01T03:21:09;5.70;;;4.63;;
41689;SDS011;27372;42.658;23.256;2023-03-01T03:23:37;5.70;;;4.80;;
41689;SDS011;27372;42.658;23.256;2023-03-01T03:26:03;5.93;;;5.07;;
41689;SDS011;27372;42.658;23.256;2023-03-01T03:28:30;6.95;;;5.22;;
41689;SDS011;27372;42.658;23.256;2023-03-01T03:30:57;7.05;;;5.95;;
41689;SDS011;27372;42.658;23.256;2023-03-01T03:33:23;7.00;;;5.68;;
41689;SDS011;27372;42.658;23.256;2023-03-01T03:35:49;7.45;;;6.10;;
41689;SDS011;27372;42.658;23.256;2023-03-01T03:38:16;7.97;;;6.40;;
41689;SDS011;27372;42.658;23.256;2023-03-01T03:43:18;8.98;;;6.50;;
41689;SDS011;27372;42.658;23.256;2023-03-01T03:45:45;7.30;;;5.90;;
41689;SDS011;27372;42.658;23.256;2023-03-01T03:48:13;7.25;;;6.00;;
41689;SDS011;27372;42.658;23.256;2023-03-01T03:50:39;9.27;;;6.47;;
41689;SDS011;27372;42.658;23.256;2023-03-01T03:53:07;9.82;;;6.35;;
41689;SDS011;27372;42.658;23.256;2023-03-01T03:58:01;8.35;;;5.80;;
41689;SDS011;27372;42.658;23.256;2023-03-01T04:00:32;9.00;;;6.15;;
41689;SDS011;27372;42.658;23.256;2023-03-01T04:03:05;8.20;;;6.18;;
41689;SDS011;27372;42.658;23.256;2023-03-01T04:05:31;7.28;;;5.68;;
41689;SDS011;27372;42.658;23.256;2023-03-01T04:07:57;7.57;;;5.53;;
41689;SDS011;27372;42.658;23.256;2023-03-01T04:10:44;6.65;;;4.93;;
41689;SDS011;27372;42.658;23.256;2023-03-01T04:13:13;6.18;;;4.95;;
41689;SDS011;27372;42.658;23.256;2023-03-01T04:15:40;6.80;;;5.30;;
41689;SDS011;27372;42.658;23.256;2023-03-01T04:18:06;6.25;;;4.40;;
41689;SDS011;27372;42.658;23.256;2023-03-01T04:20:33;6.13;;;4.78;;
41689;SDS011;27372;42.658;23.256;2023-03-01T04:23:01;5.85;;;4.40;;
41689;SDS011;27372;42.658;23.256;2023-03-01T04:28:06;5.70;;;4.60;;
41689;SDS011;27372;42.658;23.256;2023-03-01T04:30:32;5.50;;;4.28;;
41689;SDS011;27372;42.658;23.256;2023-03-01T04:33:05;6.00;;;4.43;;
41689;SDS011;27372;42.658;23.256;2023-03-01T04:35:32;6.38;;;4.60;;
41689;SDS011;27372;42.658;23.256;2023-03-01T04:38:04;5.82;;;4.40;;
41689;SDS011;27372;42.658;23.256;2023-03-01T04:40:39;6.30;;;4.55;;
41689;SDS011;27372;42.658;23.256;2023-03-01T04:43:04;7.03;;;4.80;;
41689;SDS011;27372;42.658;23.256;2023-03-01T04:45:31;5.80;;;4.75;;
41689;SDS011;27372;42.658;23.256;2023-03-01T04:47:59;11.50;;;7.20;;
41689;SDS011;27372;42.658;23.256;2023-03-01T04:50:25;6.47;;;4.90;;
41689;SDS011;27372;42.658;23.256;2023-03-01T04:52:50;8.30;;;5.30;;
41689;SDS011;27372;42.658;23.256;2023-03-01T04:55:16;6.60;;;5.32;;
41689;SDS011;27372;42.658;23.256;2023-03-01T04:57:41;6.43;;;5.57;;
41689;SDS011;27372;42.658;23.256;2023-03-01T05:00:08;14.60;;;8.85;;
41689;SDS011;27372;42.658;23.256;2023-03-01T05:02:51;12.50;;;9.23;;
41689;SDS011;27372;42.658;23.256;2023-03-01T05:05:20;7.97;;;6.03;;
41689;SDS011;27372;42.658;23.256;2023-03-01T05:07:46;8.95;;;6.25;;
41689;SDS011;27372;42.658;23.256;2023-03-01T05:10:12;8.60;;;5.75;;
41689;SDS011;27372;42.658;23.256;2023-03-01T05:12:37;7.43;;;5.40;;
41689;SDS011;27372;42.658;23.256;2023-03-01T05:15:03;8.35;;;5.70;;
41689;SDS011;27372;42.658;23.256;2023-03-01T05:17:32;7.22;;;5.05;;
41689;SDS011;27372;42.658;23.256;2023-03-01T05:19:59;7.70;;;5.65;;
41689;SDS011;27372;42.658;23.256;2023-03-01T05:22:24;8.07;;;5.75;;
41689;SDS011;27372;42.658;23.256;2023-03-01T05:24:50;8.15;;;5.80;;
41689;SDS011;27372;42.658;23.256;2023-03-01T05:27:15;13.30;;;6.93;;
41689;SDS011;27372;42.658;23.256;2023-03-01T05:29:41;8.98;;;6.43;;
41689;SDS011;27372;42.658;23.256;2023-03-01T05:32:06;8.80;;;6.35;;
41689;SDS011;27372;42.658;23.256;2023-03-01T05:34:34;8.15;;;5.60;;
41689;SDS011;27372;42.658;23.256;2023-03-01T05:37:01;7.95;;;5.28;;
41689;SDS011;27372;42.658;23.256;2023-03-01T05:39:27;5.72;;;4.60;;
41689;SDS011;27372;42.658;23.256;2023-03-01T05:41:55;8.77;;;5.03;;
41689;SDS011;27372;42.658;23.256;2023-03-01T05:44:22;5.20;;;4.00;;
41689;SDS011;27372;42.658;23.256;2023-03-01T05:46:48;6.45;;;4.38;;
41689;SDS011;27372;42.658;23.256;2023-03-01T05:49:14;6.47;;;4.70;;
41689;SDS011;27372;42.658;23.256;2023-03-01T05:51:40;5.82;;;4.15;;
41689;SDS011;27372;42.658;23.256;2023-03-01T05:54:07;6.00;;;4.32;;
41689;SDS011;27372;42.658;23.256;2023-03-01T05:56:33;7.75;;;4.32;;
41689;SDS011;27372;42.658;23.256;2023-03-01T05:58:59;5.85;;;3.78;;
41689;SDS011;27372;42.658;23.256;2023-03-01T06:01:25;5.07;;;3.88;;
41689;SDS011;27372;42.658;23.256;2023-03-01T06:03:50;5.28;;;4.05;;
41689;SDS011;27372;42.658;23.256;2023-03-01T06:06:16;5.15;;;4.15;;
41689;SDS011;27372;42.658;23.256;2023-03-01T06:08:41;8.70;;;6.03;;
41689;SDS011;27372;42.658;23.256;2023-03-01T06:11:07;5.28;;;4.10;;
41689;SDS011;27372;42.658;23.256;2023-03-01T06:13:32;4.15;;;3.60;;
41689;SDS011;27372;42.658;23.256;2023-03-01T06:15:58;4.95;;;3.97;;
41689;SDS011;27372;42.658;23.256;2023-03-01T06:18:23;4.30;;;3.45;;
41689;SDS011;27372;42.658;23.256;2023-03-01T06:20:52;5.50;;;4.00;;
41689;SDS011;27372;42.658;23.256;2023-03-01T06:23:18;5.85;;;3.95;;
41689;SDS011;27372;42.658;23.256;2023-03-01T06:25:44;5.70;;;4.30;;
41689;SDS011;27372;42.658;23.256;2023-03-01T06:28:09;5.32;;;3.42;;
41689;SDS011;27372;42.658;23.256;2023-03-01T06:30:35;6.88;;;3.65;;
41689;SDS011;27372;42.658;23.256;2023-03-01T06:33:00;6.30;;;3.50;;
41689;SDS011;27372;42.658;23.256;2023-03-01T06:35:28;8.45;;;4.30;;
41689;SDS011;27372;42.658;23.256;2023-03-01T06:37:54;8.85;;;5.00;;
41689;SDS011;27372;42.658;23.256;2023-03-01T06:40:21;5.18;;;3.78;;
41689;SDS011;27372;42.658;23.256;2023-03-01T06:42:47;8.80;;;4.15;;
41689;SDS011;27372;42.658;23.256;2023-03-01T06:45:16;4.43;;;3.42;;
41689;SDS011;27372;42.658;23.256;2023-03-01T06:47:43;5.00;;;3.45;;
41689;SDS011;27372;42.658;23.256;2023-03-01T06:50:08;8.15;;;3.58;;
41689;SDS011;27372;42.658;23.256;2023-03-01T06:52:34;4.63;;;3.20;;
41689;SDS011;27372;42.658;23.256;2023-03-01T06:55:00;5.75;;;3.75;;
41689;SDS011;27372;42.658;23.256;2023-03-01T06:57:26;4.20;;;3.42;;
41689;SDS011;27372;42.658;23.256;2023-03-01T06:59:52;5.78;;;3.42;;
41689;SDS011;27372;42.658;23.256;2023-03-01T07:02:18;5.03;;;3.60;;
41689;SDS011;27372;42.658;23.256;2023-03-01T07:04:44;4.65;;;3.60;;
41689;SDS011;27372;42.658;23.256;2023-03-01T07:07:09;8.88;;;5.97;;
41689;SDS011;27372;42.658;23.256;2023-03-01T07:09:35;9.43;;;3.78;;
41689;SDS011;27372;42.658;23.256;2023-03-01T07:12:00;7.55;;;3.45;;
41689;SDS011;27372;42.658;23.256;2023-03-01T07:14:26;7.43;;;3.63;;
41689;SDS011;27372;42.658;23.256;2023-03-01T07:16:54;11.15;;;3.38;;
41689;SDS011;27372;42.658;23.256;2023-03-01T07:19:20;14.47;;;3.47;;
41689;SDS011;27372;42.658;23.256;2023-03-01T07:21:46;7.20;;;3.33;;
41689;SDS011;27372;42.658;23.256;2023-03-01T07:24:12;5.78;;;3.50;;
41689;SDS011;27372;42.658;23.256;2023-03-01T07:26:37;5.45;;;3.53;;
41689;SDS011;27372;42.658;23.256;2023-03-01T07:29:03;4.00;;;3.25;;
41689;SDS011;27372;42.658;23.256;2023-03-01T07:31:30;5.43;;;3.40;;
41689;SDS011;27372;42.658;23.256;2023-03-01T07:33:55;4.32;;;3.20;;
41689;SDS011;27372;42.658;23.256;2023-03-01T07:36:21;4.88;;;3.00;;
41689;SDS011;27372;42.658;23.256;2023-03-01T07:38:48;4.45;;;3.20;;
41689;SDS011;27372;42.658;23.256;2023-03-01T07:41:13;5.35;;;3.05;;
41689;SDS011;27372;42.658;23.256;2023-03-01T07:43:39;10.57;;;3.58;;
41689;SDS011;27372;42.658;23.256;2023-03-01T07:46:04;9.98;;;3.60;;
41689;SDS011;27372;42.658;23.256;2023-03-01T07:48:31;13.68;;;3.80;;
41689;SDS011;27372;42.658;23.256;2023-03-01T07:50:58;8.55;;;3.50;;
41689;SDS011;27372;42.658;23.256;2023-03-01T07:53:27;6.97;;;3.45;;
41689;SDS011;27372;42.658;23.256;2023-03-01T07:58:27;4.72;;;3.10;;
41689;SDS011;27372;42.658;23.256;2023-03-01T08:00:52;6.40;;;3.22;;
41689;SDS011;27372;42.658;23.256;2023-03-01T08:03:18;5.53;;;3.30;;
41689;SDS011;27372;42.658;23.256;2023-03-01T08:05:43;10.30;;;3.47;;
41689;SDS011;27372;42.658;23.256;2023-03-01T08:08:09;9.23;;;3.78;;
41689;SDS011;27372;42.658;23.256;2023-03-01T08:10:34;17.35;;;3.42;;
41689;SDS011;27372;42.658;23.256;2023-03-01T08:13:01;22.17;;;3.70;;
41689;SDS011;27372;42.658;23.256;2023-03-01T08:15:26;12.25;;;3.35;;
41689;SDS011;27372;42.658;23.256;2023-03-01T08:17:52;7.80;;;3.60;;
41689;SDS011;27372;42.658;23.256;2023-03-01T08:20:17;6.50;;;3.08;;
41689;SDS011;27372;42.658;23.256;2023-03-01T08:22:43;28.00;;;4.47;;
41689;SDS011;27372;42.658;23.256;2023-03-01T08:25:08;19.75;;;4.78;;
41689;SDS011;27372;42.658;23.256;2023-03-01T08:27:34;16.63;;;4.15;;
41689;SDS011;27372;42.658;23.256;2023-03-01T08:29:59;20.17;;;4.82;;
41689;SDS011;27372;42.658;23.256;2023-03-01T08:32:25;14.88;;;4.03;;
41689;SDS011;27372;42.658;23.256;2023-03-01T08:34:50;13.18;;;3.55;;
41689;SDS011;27372;42.658;23.256;2023-03-01T08:37:16;10.25;;;3.50;;
41689;SDS011;27372;42.658;23.256;2023-03-01T08:39:41;4.95;;;3.10;;
41689;SDS011;27372;42.658;23.256;2023-03-01T08:42:08;4.35;;;3.20;;
41689;SDS011;27372;42.658;23.256;2023-03-01T08:44:33;4.05;;;2.97;;
41689;SDS011;27372;42.658;23.256;2023-03-01T08:47:00;6.97;;;3.10;;
41689;SDS011;27372;42.658;23.256;2023-03-01T08:49:27;4.78;;;2.72;;
41689;SDS011;27372;42.658;23.256;2023-03-01T08:51:53;5.22;;;3.13;;
41689;SDS011;27372;42.658;23.256;2023-03-01T08:54:19;5.30;;;3.67;;
41689;SDS011;27372;42.658;23.256;2023-03-01T08:56:46;4.95;;;3.03;;
41689;SDS011;27372;42.658;23.256;2023-03-01T08:59:12;5.43;;;3.53;;
41689;SDS011;27372;42.658;23.256;2023-03-01T09:01:39;6.93;;;3.22;;
41689;SDS011;27372;42.658;23.256;2023-03-01T09:04:05;6.70;;;3.60;;
41689;SDS011;27372;42.658;23.256;2023-03-01T09:06:31;11.85;;;3.70;;
41689;SDS011;27372;42.658;23.256;2023-03-01T09:11:26;4.88;;;3.25;;
41689;SDS011;27372;42.658;23.256;2023-03-01T09:13:52;4.43;;;3.20;;
41689;SDS011;27372;42.658;23.256;2023-03-01T09:16:19;5.05;;;3.45;;
41689;SDS011;27372;42.658;23.256;2023-03-01T09:18:48;5.00;;;3.47;;
41689;SDS011;27372;42.658;23.256;2023-03-01T09:21:17;4.28;;;3.13;;
41689;SDS011;27372;42.658;23.256;2023-03-01T09:23:44;3.30;;;2.90;;
41689;SDS011;27372;42.658;23.256;2023-03-01T09:26:12;3.95;;;3.10;;
41689;SDS011;27372;42.658;23.256;2023-03-01T09:28:41;4.40;;;3.50;;
41689;SDS011;27372;42.658;23.256;2023-03-01T09:31:07;7.60;;;3.63;;
41689;SDS011;27372;42.658;23.256;2023-03-01T09:33:32;3.95;;;2.90;;
41689;SDS011;27372;42.658;23.256;2023-03-01T09:35:59;6.63;;;3.10;;
41689;SDS011;27372;42.658;23.256;2023-03-01T09:38:29;5.50;;;3.70;;
41689;SDS011;27372;42.658;23.256;2023-03-01T09:40:55;5.85;;;4.07;;
41689;SDS011;27372;42.658;23.256;2023-03-01T09:45:53;7.53;;;4.20;;
41689;SDS011;27372;42.658;23.256;2023-03-01T09:48:21;7.63;;;4.05;;
41689;SDS011;27372;42.658;23.256;2023-03-01T09:50:51;9.82;;;4.10;;
41689;SDS011;27372;42.658;23.256;2023-03-01T09:53:18;6.15;;;3.58;;
41689;SDS011;27372;42.658;23.256;2023-03-01T10:00:46;5.40;;;3.60;;
41689;SDS011;27372;42.658;23.256;2023-03-01T10:03:20;7.07;;;3.63;;
41689;SDS011;27372;42.658;23.256;2023-03-01T10:11:37;6.50;;;3.58;;
41689;SDS011;27372;42.658;23.256;2023-03-01T10:14:13;5.50;;;3.50;;
41689;SDS011;27372;42.658;23.256;2023-03-01T10:16:56;4.57;;;3.20;;
41689;SDS011;27372;42.658;23.256;2023-03-01T10:19:33;6.75;;;3.38;;
41689;SDS011;27372;42.658;23.256;2023-03-01T10:24:38;5.55;;;3.40;;
41689;SDS011;27372;42.658;23.256;2023-03-01T10:27:22;6.28;;;3.90;;
41689;SDS011;27372;42.658;23.256;2023-03-01T10:32:23;6.70;;;3.53;;
41689;SDS011;27372;42.658;23.256;2023-03-01T10:34:50;7.75;;;3.60;;
41689;SDS011;27372;42.658;23.256;2023-03-01T10:37:16;10.50;;;3.72;;
41689;SDS011;27372;42.658;23.256;2023-03-01T10:40:26;6.90;;;3.95;;
41689;SDS011;27372;42.658;23.256;2023-03-01T10:42:38;9.40;;;3.80;;
41689;SDS011;27372;42.658;23.256;2023-03-01T10:48:45;6.25;;;4.30;;
41689;SDS011;27372;42.658;23.256;2023-03-01T10:58:29;5.32;;;4.25;;
41689;SDS011;27372;42.658;23.256;2023-03-01T11:00:56;7.40;;;3.83;;
41689;SDS011;27372;42.658;23.256;2023-03-01T11:08:41;6.32;;;3.60;;
41689;SDS011;27372;42.658;23.256;2023-03-01T11:11:17;4.75;;;3.83;;
41689;SDS011;27372;42.658;23.256;2023-03-01T11:13:51;5.68;;;4.28;;
41689;SDS011;27372;42.658;23.256;2023-03-01T11:16:17;7.47;;;4.30;;
41689;SDS011;27372;42.658;23.256;2023-03-01T11:27:20;19.90;;;6.43;;
41689;SDS011;27372;42.658;23.256;2023-03-01T11:29:56;8.50;;;5.75;;
41689;SDS011;27372;42.658;23.256;2023-03-01T11:32:28;6.80;;;4.60;;
41689;SDS011;27372;42.658;23.256;2023-03-01T11:35:12;5.97;;;4.47;;
41689;SDS011;27372;42.658;23.256;2023-03-01T11:40:28;6.95;;;4.43;;
41689;SDS011;27372;42.658;23.256;2023-03-01T12:09:02;10.00;;;4.63;;
41689;SDS011;27372;42.658;23.256;2023-03-01T12:33:29;6.97;;;5.15;;
41689;SDS011;27372;42.658;23.256;2023-03-01T12:50:17;7.50;;;4.70;;
41689;SDS011;27372;42.658;23.256;2023-03-01T12:52:52;6.88;;;4.68;;
41689;SDS011;27372;42.658;23.256;2023-03-01T13:01:01;4.13;;;3.67;;
41689;SDS011;27372;42.658;23.256;2023-03-01T13:07:07;4.38;;;3.50;;
41689;SDS011;27372;42.658;23.256;2023-03-01T13:23:23;12.93;;;6.78;;
41689;SDS011;27372;42.658;23.256;2023-03-01T13:26:00;9.02;;;5.72;;
41689;SDS011;27372;42.658;23.256;2023-03-01T13:28:46;7.85;;;5.00;;
41689;SDS011;27372;42.658;23.256;2023-03-01T13:33:52;12.20;;;6.53;;
41689;SDS011;27372;42.658;23.256;2023-03-01T13:44:11;6.43;;;4.80;;
41689;SDS011;27372;42.658;23.256;2023-03-01T13:46:43;5.45;;;4.50;;
41689;SDS011;27372;42.658;23.256;2023-03-01T13:49:11;7.03;;;5.80;;
41689;SDS011;27372;42.658;23.256;2023-03-01T13:51:41;8.63;;;5.30;;
41689;SDS011;27372;42.658;23.256;2023-03-01T13:54:12;11.52;;;6.40;;
41689;SDS011;27372;42.658;23.256;2023-03-01T13:56:39;9.23;;;5.35;;
41689;SDS011;27372;42.658;23.256;2023-03-01T13:59:06;10.52;;;5.07;;
41689;SDS011;27372;42.658;23.256;2023-03-01T14:01:39;7.57;;;4.90;;
41689;SDS011;27372;42.658;23.256;2023-03-01T14:06:51;14.57;;;5.50;;
41689;SDS011;27372;42.658;23.256;2023-03-01T14:20:09;18.75;;;6.40;;
41689;SDS011;27372;42.658;23.256;2023-03-01T14:22:38;23.70;;;6.10;;
41689;SDS011;27372;42.658;23.256;2023-03-01T14:27:52;6.72;;;4.88;;
41689;SDS011;27372;42.658;23.256;2023-03-01T14:30:22;12.32;;;6.03;;
41689;SDS011;27372;42.658;23.256;2023-03-01T14:32:58;10.18;;;5.05;;
41689;SDS011;27372;42.658;23.256;2023-03-01T14:35:30;6.07;;;4.90;;
41689;SDS011;27372;42.658;23.256;2023-03-01T14:37:57;7.70;;;5.40;;
41689;SDS011;27372;42.658;23.256;2023-03-01T14:40:24;11.77;;;5.75;;
41689;SDS011;27372;42.658;23.256;2023-03-01T14:45:18;21.15;;;6.22;;
41689;SDS011;27372;42.658;23.256;2023-03-01T14:47:45;14.85;;;5.38;;
41689;SDS011;27372;42.658;23.256;2023-03-01T14:52:42;11.82;;;5.50;;
41689;SDS011;27372;42.658;23.256;2023-03-01T14:57:44;13.43;;;5.00;;
41689;SDS011;27372;42.658;23.256;2023-03-01T15:00:20;26.52;;;6.35;;
41689;SDS011;27372;42.658;23.256;2023-03-01T15:02:48;10.18;;;5.00;;
41689;SDS011;27372;42.658;23.256;2023-03-01T15:05:17;7.78;;;4.80;;
41689;SDS011;27372;42.658;23.256;2023-03-01T15:08:20;7.97;;;4.68;;
41689;SDS011;27372;42.658;23.256;2023-03-01T15:13:24;5.00;;;3.92;;
41689;SDS011;27372;42.658;23.256;2023-03-01T15:15:53;6.47;;;4.85;;
41689;SDS011;27372;42.658;23.256;2023-03-01T15:18:27;7.88;;;5.20;;
41689;SDS011;27372;42.658;23.256;2023-03-01T15:20:54;8.25;;;5.00;;
41689;SDS011;27372;42.658;23.256;2023-03-01T15:23:30;9.07;;;4.78;;
41689;SDS011;27372;42.658;23.256;2023-03-01T15:25:56;7.18;;;5.38;;
41689;SDS011;27372;42.658;23.256;2023-03-01T15:28:33;7.35;;;4.95;;
41689;SDS011;27372;42.658;23.256;2023-03-01T15:33:46;7.90;;;5.50;;
41689;SDS011;27372;42.658;23.256;2023-03-01T15:39:02;7.95;;;5.30;;
41689;SDS011;27372;42.658;23.256;2023-03-01T15:41:29;13.90;;;5.75;;
41689;SDS011;27372;42.658;23.256;2023-03-01T15:44:00;9.32;;;6.50;;
41689;SDS011;27372;42.658;23.256;2023-03-01T15:46:40;10.05;;;6.45;;
41689;SDS011;27372;42.658;23.256;2023-03-01T15:49:31;11.60;;;6.03;;
41689;SDS011;27372;42.658;23.256;2023-03-01T15:52:01;9.55;;;5.65;;
41689;SDS011;27372;42.658;23.256;2023-03-01T15:54:27;9.68;;;6.05;;
41689;SDS011;27372;42.658;23.256;2023-03-01T15:56:54;9.07;;;6.10;;
41689;SDS011;27372;42.658;23.256;2023-03-01T15:59:19;10.77;;;6.18;;
41689;SDS011;27372;42.658;23.256;2023-03-01T16:01:47;10.68;;;6.45;;
41689;SDS011;27372;42.658;23.256;2023-03-01T16:04:14;9.07;;;5.72;;
41689;SDS011;27372;42.658;23.256;2023-03-01T16:06:51;10.07;;;6.22;;
41689;SDS011;27372;42.658;23.256;2023-03-01T16:09:21;16.20;;;8.02;;
41689;SDS011;27372;42.658;23.256;2023-03-01T16:11:49;12.13;;;6.05;;
41689;SDS011;27372;42.658;23.256;2023-03-01T16:14:15;9.90;;;6.22;;
41689;SDS011;27372;42.658;23.256;2023-03-01T16:16:41;8.93;;;5.57;;
41689;SDS011;27372;42.658;23.256;2023-03-01T16:19:07;10.02;;;5.82;;
41689;SDS011;27372;42.658;23.256;2023-03-01T16:21:32;14.68;;;6.55;;
41689;SDS011;27372;42.658;23.256;2023-03-01T16:23:58;10.85;;;6.50;;
41689;SDS011;27372;42.658;23.256;2023-03-01T16:26:23;12.63;;;5.70;;
41689;SDS011;27372;42.658;23.256;2023-03-01T16:28:49;11.15;;;5.78;;
41689;SDS011;27372;42.658;23.256;2023-03-01T16:31:17;10.63;;;5.45;;
41689;SDS011;27372;42.658;23.256;2023-03-01T16:33:43;11.25;;;6.10;;
41689;SDS011;27372;42.658;23.256;2023-03-01T16:36:17;10.98;;;5.78;;
41689;SDS011;27372;42.658;23.256;2023-03-01T16:38:48;9.15;;;5.80;;
41689;SDS011;27372;42.658;23.256;2023-03-01T16:41:16;12.60;;;5.80;;
41689;SDS011;27372;42.658;23.256;2023-03-01T16:43:42;11.57;;;5.53;;
41689;SDS011;27372;42.658;23.256;2023-03-01T16:46:16;10.23;;;5.90;;
41689;SDS011;27372;42.658;23.256;2023-03-01T16:48:45;13.30;;;5.88;;
41689;SDS011;27372;42.658;23.256;2023-03-01T16:51:11;12.65;;;6.07;;
41689;SDS011;27372;42.658;23.256;2023-03-01T16:53:37;11.52;;;6.10;;
41689;SDS011;27372;42.658;23.256;2023-03-01T16:56:03;9.43;;;5.20;;
41689;SDS011;27372;42.658;23.256;2023-03-01T16:58:31;12.52;;;5.90;;
41689;SDS011;27372;42.658;23.256;2023-03-01T17:01:02;13.40;;;5.68;;
41689;SDS011;27372;42.658;23.256;2023-03-01T17:03:29;11.23;;;5.88;;
41689;SDS011;27372;42.658;23.256;2023-03-01T17:05:54;12.43;;;5.97;;
41689;SDS011;27372;42.658;23.256;2023-03-01T17:08:20;11.43;;;7.38;;
41689;SDS011;27372;42.658;23.256;2023-03-01T17:10:45;9.75;;;5.95;;
41689;SDS011;27372;42.658;23.256;2023-03-01T17:13:10;12.05;;;5.75;;
41689;SDS011;27372;42.658;23.256;2023-03-01T17:15:42;11.27;;;5.95;;
41689;SDS011;27372;42.658;23.256;2023-03-01T17:18:08;10.30;;;6.10;;
41689;SDS011;27372;42.658;23.256;2023-03-01T17:20:34;9.18;;;5.95;;
41689;SDS011;27372;42.658;23.256;2023-03-01T17:23:00;14.52;;;6.88;;
41689;SDS011;27372;42.658;23.256;2023-03-01T17:25:26;11.48;;;5.57;;
41689;SDS011;27372;42.658;23.256;2023-03-01T17:27:52;11.50;;;6.20;;
41689;SDS011;27372;42.658;23.256;2023-03-01T17:30:17;8.85;;;5.43;;
41689;SDS011;27372;42.658;23.256;2023-03-01T17:32:43;8.63;;;5.40;;
41689;SDS011;27372;42.658;23.256;2023-03-01T17:35:08;9.77;;;6.35;;
41689;SDS011;27372;42.658;23.256;2023-03-01T17:37:36;12.20;;;6.32;;
41689;SDS011;27372;42.658;23.256;2023-03-01T17:40:03;11.57;;;7.13;;
41689;SDS011;27372;42.658;23.256;2023-03-01T17:42:29;9.45;;;6.43;;
41689;SDS011;27372;42.658;23.256;2023-03-01T17:44:55;12.88;;;6.97;;
41689;SDS011;27372;42.658;23.256;2023-03-01T17:47:20;12.30;;;7.35;;
41689;SDS011;27372;42.658;23.256;2023-03-01T17:49:46;14.15;;;7.18;;
41689;SDS011;27372;42.658;23.256;2023-03-01T17:52:11;10.98;;;6.90;;
41689;SDS011;27372;42.658;23.256;2023-03-01T17:54:37;15.68;;;9.38;;